sensor_id;sensor_type;location;lat;lon;timestamp;pressure;altitude;pressure_sealevel;temperature;humidity
59757;BME280;45631;51.962;5.974;2023-06-22T00:01:23;101770.84;;;20.21;100.00
59757;BME280;45631;51.962;5.974;2023-06-22T00:03:51;101775.19;;;20.22;100.00
59757;BME280;45631;51.962;5.974;2023-06-22T00:06:20;101768.19;;;20.11;100.00
59757;BME280;45631;51.962;5.974;2023-06-22T00:08:48;101770.97;;;20.09;100.00
59757;BME280;45631;51.962;5.974;2023-06-22T00:11:16;101769.84;;;20.02;100.00
59757;BME280;45631;51.962;5.974;2023-06-22T00:13:48;101769.44;;;19.97;100.00
59757;BME280;45631;51.962;5.974;2023-06-22T00:16:17;101770.97;;;20.09;100.00
59757;BME280;45631;51.962;5.974;2023-06-22T00:18:46;101756.94;;;20.07;100.00
59757;BME280;45631;51.962;5.974;2023-06-22T00:21:15;101758.75;;;19.97;100.00
59757;BME280;45631;51.962;5.974;2023-06-22T00:23:43;101763.78;;;19.90;100.00
59757;BME280;45631;51.962;5.974;2023-06-22T00:26:12;101754.94;;;19.80;100.00
59757;BME280;45631;51.962;5.974;2023-06-22T00:28:40;101760.50;;;19.67;100.00
59757;BME280;45631;51.962;5.974;2023-06-22T00:31:10;101761.81;;;19.73;100.00
59757;BME280;45631;51.962;5.974;2023-06-22T00:33:38;101750.44;;;19.81;100.00
59757;BME280;45631;51.962;5.974;2023-06-22T00:36:09;101743.81;;;19.75;100.00
59757;BME280;45631;51.962;5.974;2023-06-22T00:38:40;101742.97;;;19.74;100.00
59757;BME280;45631;51.962;5.974;2023-06-22T00:41:08;101757.44;;;19.72;100.00
59757;BME280;45631;51.962;5.974;2023-06-22T00:43:36;101759.53;;;19.68;100.00
59757;BME280;45631;51.962;5.974;2023-06-22T00:46:04;101749.41;;;19.62;100.00
59757;BME280;45631;51.962;5.974;2023-06-22T00:48:34;101753.06;;;19.61;100.00
59757;BME280;45631;51.962;5.974;2023-06-22T00:51:06;101750.94;;;19.55;100.00
59757;BME280;45631;51.962;5.974;2023-06-22T00:53:35;101754.59;;;19.54;100.00
59757;BME280;45631;51.962;5.974;2023-06-22T00:56:04;101754.56;;;19.44;100.00
59757;BME280;45631;51.962;5.974;2023-06-22T01:02:58;101762.38;;;19.36;100.00
59757;BME280;45631;51.962;5.974;2023-06-22T01:05:28;101758.75;;;19.37;100.00
59757;BME280;45631;51.962;5.974;2023-06-22T01:08:05;101760.44;;;19.38;100.00
59757;BME280;45631;51.962;5.974;2023-06-22T01:10:39;101752.13;;;19.31;100.00
59757;BME280;45631;51.962;5.974;2023-06-22T01:13:16;101748.34;;;19.24;100.00
59757;BME280;45631;51.962;5.974;2023-06-22T01:15:49;101753.38;;;19.27;100.00
59757;BME280;45631;51.962;5.974;2023-06-22T01:18:19;101752.25;;;19.20;100.00
59757;BME280;45631;51.962;5.974;2023-06-22T01:20:51;101749.88;;;19.27;100.00
59757;BME280;45631;51.962;5.974;2023-06-22T01:23:26;101748.59;;;19.21;100.00
59757;BME280;45631;51.962;5.974;2023-06-22T01:26:03;101747.88;;;19.19;100.00
59757;BME280;45631;51.962;5.974;2023-06-22T01:28:45;101742.00;;;19.25;100.00
59757;BME280;45631;51.962;5.974;2023-06-22T01:31:16;101738.34;;;19.16;100.00
59757;BME280;45631;51.962;5.974;2023-06-22T01:33:49;101737.88;;;19.11;100.00
59757;BME280;45631;51.962;5.974;2023-06-22T01:36:19;101733.13;;;19.15;100.00
59757;BME280;45631;51.962;5.974;2023-06-22T01:38:49;101735.22;;;19.11;100.00
59757;BME280;45631;51.962;5.974;2023-06-22T01:41:19;101745.75;;;19.13;100.00
59757;BME280;45631;51.962;5.974;2023-06-22T01:43:49;101741.13;;;19.15;100.00
59757;BME280;45631;51.962;5.974;2023-06-22T01:46:18;101733.59;;;19.20;100.00
59757;BME280;45631;51.962;5.974;2023-06-22T01:48:47;101726.28;;;19.22;100.00
59757;BME280;45631;51.962;5.974;2023-06-22T01:51:16;101722.91;;;19.20;100.00
59757;BME280;45631;51.962;5.974;2023-06-22T01:53:44;101727.66;;;19.16;100.00
59757;BME280;45631;51.962;5.974;2023-06-22T01:56:17;101726.13;;;19.14;100.00
59757;BME280;45631;51.962;5.974;2023-06-22T01:58:49;101731.41;;;19.04;100.00
59757;BME280;45631;51.962;5.974;2023-06-22T02:01:23;101725.25;;;19.03;100.00
59757;BME280;45631;51.962;5.974;2023-06-22T02:03:58;101730.00;;;19.00;100.00
59757;BME280;45631;51.962;5.974;2023-06-22T02:06:33;101739.09;;;18.97;100.00
59757;BME280;45631;51.962;5.974;2023-06-22T02:09:08;101736.44;;;18.97;100.00
59757;BME280;45631;51.962;5.974;2023-06-22T02:11:37;101743.00;;;18.93;100.00
59757;BME280;45631;51.962;5.974;2023-06-22T02:14:10;101738.50;;;18.94;100.00
59757;BME280;45631;51.962;5.974;2023-06-22T02:16:38;101730.09;;;18.88;100.00
59757;BME280;45631;51.962;5.974;2023-06-22T02:19:07;101736.97;;;18.91;100.00
59757;BME280;45631;51.962;5.974;2023-06-22T02:21:35;101733.44;;;18.90;100.00
59757;BME280;45631;51.962;5.974;2023-06-22T02:24:03;101733.31;;;18.92;100.00
59757;BME280;45631;51.962;5.974;2023-06-22T02:26:32;101722.59;;;18.82;100.00
59757;BME280;45631;51.962;5.974;2023-06-22T02:29:04;101723.97;;;18.77;100.00
59757;BME280;45631;51.962;5.974;2023-06-22T02:31:33;101722.00;;;18.79;100.00
59757;BME280;45631;51.962;5.974;2023-06-22T02:34:01;101718.63;;;18.77;100.00
59757;BME280;45631;51.962;5.974;2023-06-22T02:36:30;101712.72;;;18.73;100.00
59757;BME280;45631;51.962;5.974;2023-06-22T02:38:58;101715.13;;;18.76;100.00
59757;BME280;45631;51.962;5.974;2023-06-22T02:41:28;101716.25;;;18.73;100.00
59757;BME280;45631;51.962;5.974;2023-06-22T02:43:56;101712.56;;;18.74;100.00
59757;BME280;45631;51.962;5.974;2023-06-22T02:46:24;101716.38;;;18.72;100.00
59757;BME280;45631;51.962;5.974;2023-06-22T02:48:54;101715.50;;;18.71;100.00
59757;BME280;45631;51.962;5.974;2023-06-22T02:51:22;101720.38;;;18.66;100.00
59757;BME280;45631;51.962;5.974;2023-06-22T02:53:53;101713.94;;;18.69;100.00
59757;BME280;45631;51.962;5.974;2023-06-22T02:56:24;101712.53;;;18.65;100.00
59757;BME280;45631;51.962;5.974;2023-06-22T02:58:52;101705.78;;;18.61;100.00
59757;BME280;45631;51.962;5.974;2023-06-22T03:01:23;101710.91;;;18.52;100.00
59757;BME280;45631;51.962;5.974;2023-06-22T03:03:53;101704.69;;;18.63;100.00
59757;BME280;45631;51.962;5.974;2023-06-22T03:06:22;101707.75;;;18.58;100.00
59757;BME280;45631;51.962;5.974;2023-06-22T03:08:57;101709.69;;;18.56;100.00
59757;BME280;45631;51.962;5.974;2023-06-22T03:11:25;101708.25;;;18.52;100.00
59757;BME280;45631;51.962;5.974;2023-06-22T03:13:53;101710.78;;;18.54;100.00
59757;BME280;45631;51.962;5.974;2023-06-22T03:16:21;101707.16;;;18.55;100.00
59757;BME280;45631;51.962;5.974;2023-06-22T03:18:49;101704.31;;;18.47;100.00
59757;BME280;45631;51.962;5.974;2023-06-22T03:21:19;101700.53;;;18.49;100.00
59757;BME280;45631;51.962;5.974;2023-06-22T03:23:47;101700.22;;;18.42;100.00
59757;BME280;45631;51.962;5.974;2023-06-22T03:26:16;101699.47;;;18.40;100.00
59757;BME280;45631;51.962;5.974;2023-06-22T03:28:45;101695.41;;;18.36;100.00
59757;BME280;45631;51.962;5.974;2023-06-22T03:31:13;101680.84;;;18.40;100.00
59757;BME280;45631;51.962;5.974;2023-06-22T03:33:41;101678.84;;;18.33;100.00
59757;BME280;45631;51.962;5.974;2023-06-22T03:36:09;101679.91;;;18.20;100.00
59757;BME280;45631;51.962;5.974;2023-06-22T03:38:39;101685.59;;;18.16;100.00
59757;BME280;45631;51.962;5.974;2023-06-22T03:41:08;101684.50;;;18.18;100.00
59757;BME280;45631;51.962;5.974;2023-06-22T03:43:36;101686.59;;;18.15;100.00
59757;BME280;45631;51.962;5.974;2023-06-22T03:46:05;101681.69;;;18.20;100.00
59757;BME280;45631;51.962;5.974;2023-06-22T03:48:33;101685.72;;;18.14;100.00
59757;BME280;45631;51.962;5.974;2023-06-22T03:51:04;101684.56;;;18.07;100.00
59757;BME280;45631;51.962;5.974;2023-06-22T03:53:32;101681.50;;;18.12;100.00
59757;BME280;45631;51.962;5.974;2023-06-22T03:56:02;101678.97;;;18.10;100.00
59757;BME280;45631;51.962;5.974;2023-06-22T03:58:30;101677.75;;;18.14;100.00
59757;BME280;45631;51.962;5.974;2023-06-22T04:00:59;101678.72;;;18.13;100.00
59757;BME280;45631;51.962;5.974;2023-06-22T04:03:30;101674.28;;;18.02;100.00
59757;BME280;45631;51.962;5.974;2023-06-22T04:05:58;101682.25;;;18.02;100.00
59757;BME280;45631;51.962;5.974;2023-06-22T04:08:26;101668.97;;;18.02;100.00
59757;BME280;45631;51.962;5.974;2023-06-22T04:10:54;101676.94;;;18.02;100.00
59757;BME280;45631;51.962;5.974;2023-06-22T04:13:24;101682.88;;;18.06;100.00
59757;BME280;45631;51.962;5.974;2023-06-22T04:15:52;101677.28;;;18.09;100.00
59757;BME280;45631;51.962;5.974;2023-06-22T04:18:20;101679.84;;;18.11;100.00
59757;BME280;45631;51.962;5.974;2023-06-22T04:20:51;101678.63;;;18.03;100.00
59757;BME280;45631;51.962;5.974;2023-06-22T04:23:19;101677.22;;;17.99;100.00
59757;BME280;45631;51.962;5.974;2023-06-22T04:25:47;101672.97;;;17.97;100.00
59757;BME280;45631;51.962;5.974;2023-06-22T04:28:15;101676.03;;;17.92;100.00
59757;BME280;45631;51.962;5.974;2023-06-22T04:30:45;101673.59;;;18.00;100.00
59757;BME280;45631;51.962;5.974;2023-06-22T04:33:14;101678.41;;;18.06;100.00
59757;BME280;45631;51.962;5.974;2023-06-22T04:35:45;101678.59;;;18.15;100.00
59757;BME280;45631;51.962;5.974;2023-06-22T04:38:13;101681.00;;;18.18;100.00
59757;BME280;45631;51.962;5.974;2023-06-22T04:40:41;101678.19;;;18.19;100.00
59757;BME280;45631;51.962;5.974;2023-06-22T04:43:09;101677.28;;;18.30;100.00
59757;BME280;45631;51.962;5.974;2023-06-22T04:45:41;101675.72;;;18.28;100.00
59757;BME280;45631;51.962;5.974;2023-06-22T04:48:10;101674.38;;;18.33;100.00
59757;BME280;45631;51.962;5.974;2023-06-22T04:50:43;101676.91;;;18.35;100.00
59757;BME280;45631;51.962;5.974;2023-06-22T04:53:12;101675.53;;;18.40;100.00
59757;BME280;45631;51.962;5.974;2023-06-22T04:55:43;101673.00;;;18.39;100.00
59757;BME280;45631;51.962;5.974;2023-06-22T04:58:13;101666.56;;;18.41;100.00
59757;BME280;45631;51.962;5.974;2023-06-22T05:00:41;101669.09;;;18.43;100.00
59757;BME280;45631;51.962;5.974;2023-06-22T05:03:12;101670.41;;;18.49;100.00
59757;BME280;45631;51.962;5.974;2023-06-22T05:05:46;101668.44;;;18.51;100.00
59757;BME280;45631;51.962;5.974;2023-06-22T05:08:14;101668.91;;;18.56;100.00
59757;BME280;45631;51.962;5.974;2023-06-22T05:10:43;101660.34;;;18.62;100.00
59757;BME280;45631;51.962;5.974;2023-06-22T05:13:30;101660.53;;;18.70;100.00
59757;BME280;45631;51.962;5.974;2023-06-22T05:15:58;101654.69;;;18.77;100.00
59757;BME280;45631;51.962;5.974;2023-06-22T05:18:31;101670.13;;;18.83;100.00
59757;BME280;45631;51.962;5.974;2023-06-22T05:21:00;101667.78;;;18.89;100.00
59757;BME280;45631;51.962;5.974;2023-06-22T05:23:30;101659.94;;;18.88;100.00
59757;BME280;45631;51.962;5.974;2023-06-22T05:25:58;101664.59;;;18.96;100.00
59757;BME280;45631;51.962;5.974;2023-06-22T05:28:27;101666.59;;;19.03;100.00
59757;BME280;45631;51.962;5.974;2023-06-22T05:30:55;101661.31;;;19.13;100.00
59757;BME280;45631;51.962;5.974;2023-06-22T05:33:23;101662.56;;;19.19;100.00
59757;BME280;45631;51.962;5.974;2023-06-22T05:35:52;101656.81;;;19.23;100.00
59757;BME280;45631;51.962;5.974;2023-06-22T05:38:21;101666.81;;;19.31;100.00
59757;BME280;45631;51.962;5.974;2023-06-22T05:40:49;101674.66;;;19.33;100.00
59757;BME280;45631;51.962;5.974;2023-06-22T05:43:20;101678.91;;;19.45;100.00
59757;BME280;45631;51.962;5.974;2023-06-22T05:45:48;101681.16;;;19.50;100.00
59757;BME280;45631;51.962;5.974;2023-06-22T05:48:16;101692.25;;;19.55;100.00
59757;BME280;45631;51.962;5.974;2023-06-22T05:50:45;101692.53;;;19.62;100.00
59757;BME280;45631;51.962;5.974;2023-06-22T05:53:14;101685.09;;;19.65;100.00
59757;BME280;45631;51.962;5.974;2023-06-22T05:55:42;101678.78;;;19.76;100.00
59757;BME280;45631;51.962;5.974;2023-06-22T05:58:14;101687.53;;;19.88;100.00
59757;BME280;45631;51.962;5.974;2023-06-22T06:00:42;101685.84;;;19.97;100.00
59757;BME280;45631;51.962;5.974;2023-06-22T06:03:11;101682.47;;;20.04;100.00
59757;BME280;45631;51.962;5.974;2023-06-22T06:05:41;101680.47;;;20.16;100.00
59757;BME280;45631;51.962;5.974;2023-06-22T06:08:09;101688.63;;;20.24;100.00
59757;BME280;45631;51.962;5.974;2023-06-22T06:10:40;101684.41;;;20.32;100.00
59757;BME280;45631;51.962;5.974;2023-06-22T06:13:08;101692.38;;;20.41;100.00
59757;BME280;45631;51.962;5.974;2023-06-22T06:15:36;101684.34;;;20.51;100.00
59757;BME280;45631;51.962;5.974;2023-06-22T06:18:05;101691.34;;;20.62;100.00
59757;BME280;45631;51.962;5.974;2023-06-22T06:20:33;101694.88;;;20.72;100.00
59757;BME280;45631;51.962;5.974;2023-06-22T06:23:02;101698.06;;;20.76;100.00
59757;BME280;45631;51.962;5.974;2023-06-22T06:25:30;101694.38;;;20.87;100.00
59757;BME280;45631;51.962;5.974;2023-06-22T06:28:00;101684.09;;;20.92;100.00
59757;BME280;45631;51.962;5.974;2023-06-22T06:30:28;101676.72;;;21.04;100.00
59757;BME280;45631;51.962;5.974;2023-06-22T06:32:56;101672.72;;;21.18;100.00
59757;BME280;45631;51.962;5.974;2023-06-22T06:35:25;101675.31;;;21.27;100.00
59757;BME280;45631;51.962;5.974;2023-06-22T06:37:53;101664.84;;;21.34;100.00
59757;BME280;45631;51.962;5.974;2023-06-22T06:40:21;101667.16;;;21.47;100.00
59757;BME280;45631;51.962;5.974;2023-06-22T06:42:49;101667.81;;;21.59;100.00
59757;BME280;45631;51.962;5.974;2023-06-22T06:45:20;101666.50;;;21.63;100.00
59757;BME280;45631;51.962;5.974;2023-06-22T06:47:50;101665.59;;;21.72;100.00
59757;BME280;45631;51.962;5.974;2023-06-22T06:50:19;101665.34;;;21.84;100.00
59757;BME280;45631;51.962;5.974;2023-06-22T06:52:47;101664.09;;;21.96;100.00
59757;BME280;45631;51.962;5.974;2023-06-22T06:55:16;101663.25;;;22.14;100.00
59757;BME280;45631;51.962;5.974;2023-06-22T06:57:46;101662.84;;;22.26;100.00
59757;BME280;45631;51.962;5.974;2023-06-22T07:00:16;101667.63;;;22.41;100.00
59757;BME280;45631;51.962;5.974;2023-06-22T07:02:45;101665.53;;;22.53;100.00
59757;BME280;45631;51.962;5.974;2023-06-22T07:05:15;101662.38;;;22.57;100.00
59757;BME280;45631;51.962;5.974;2023-06-22T07:07:43;101655.53;;;22.63;100.00
59757;BME280;45631;51.962;5.974;2023-06-22T07:10:11;101646.03;;;22.69;100.00
59757;BME280;45631;51.962;5.974;2023-06-22T07:12:40;101651.25;;;22.78;100.00
59757;BME280;45631;51.962;5.974;2023-06-22T07:15:09;101654.97;;;22.86;100.00
59757;BME280;45631;51.962;5.974;2023-06-22T07:17:38;101648.66;;;22.95;100.00
59757;BME280;45631;51.962;5.974;2023-06-22T07:20:10;101637.25;;;23.01;100.00
59757;BME280;45631;51.962;5.974;2023-06-22T07:22:40;101641.47;;;23.12;100.00
59757;BME280;45631;51.962;5.974;2023-06-22T07:25:09;101640.47;;;23.05;100.00
59757;BME280;45631;51.962;5.974;2023-06-22T07:27:43;101634.59;;;23.09;100.00
59757;BME280;45631;51.962;5.974;2023-06-22T07:30:12;101631.63;;;23.12;100.00
59757;BME280;45631;51.962;5.974;2023-06-22T07:32:40;101636.88;;;23.39;100.00
59757;BME280;45631;51.962;5.974;2023-06-22T07:35:10;101636.53;;;23.34;100.00
59757;BME280;45631;51.962;5.974;2023-06-22T07:37:38;101636.06;;;23.38;100.00
59757;BME280;45631;51.962;5.974;2023-06-22T07:40:10;101632.22;;;23.57;100.00
59757;BME280;45631;51.962;5.974;2023-06-22T07:42:38;101631.53;;;23.63;100.00
59757;BME280;45631;51.962;5.974;2023-06-22T07:45:07;101627.31;;;23.69;100.00
59757;BME280;45631;51.962;5.974;2023-06-22T07:47:36;101619.63;;;23.66;100.00
59757;BME280;45631;51.962;5.974;2023-06-22T07:50:05;101614.41;;;23.73;100.00
59757;BME280;45631;51.962;5.974;2023-06-22T07:52:35;101618.28;;;23.78;100.00
59757;BME280;45631;51.962;5.974;2023-06-22T07:55:04;101618.78;;;23.82;100.00
59757;BME280;45631;51.962;5.974;2023-06-22T07:57:32;101620.94;;;23.87;100.00
59757;BME280;45631;51.962;5.974;2023-06-22T08:00:03;101621.78;;;23.95;100.00
59757;BME280;45631;51.962;5.974;2023-06-22T08:02:41;101617.63;;;24.01;100.00
59757;BME280;45631;51.962;5.974;2023-06-22T08:05:09;101610.75;;;23.99;100.00
59757;BME280;45631;51.962;5.974;2023-06-22T08:07:42;101613.91;;;24.19;100.00
59757;BME280;45631;51.962;5.974;2023-06-22T08:10:14;101617.59;;;24.18;100.00
59757;BME280;45631;51.962;5.974;2023-06-22T08:12:45;101608.38;;;24.12;100.00
59757;BME280;45631;51.962;5.974;2023-06-22T08:15:13;101598.63;;;24.11;100.00
59757;BME280;45631;51.962;5.974;2023-06-22T08:17:41;101597.91;;;24.25;100.00
59757;BME280;45631;51.962;5.974;2023-06-22T08:20:12;101586.81;;;24.28;100.00
59757;BME280;45631;51.962;5.974;2023-06-22T08:22:42;101596.69;;;24.36;100.00
59757;BME280;45631;51.962;5.974;2023-06-22T08:25:11;101587.59;;;24.45;100.00
59757;BME280;45631;51.962;5.974;2023-06-22T08:27:40;101582.19;;;24.54;100.00
59757;BME280;45631;51.962;5.974;2023-06-22T08:30:09;101574.44;;;24.59;100.00
59757;BME280;45631;51.962;5.974;2023-06-22T08:32:38;101572.41;;;24.69;100.00
59757;BME280;45631;51.962;5.974;2023-06-22T08:35:07;101558.84;;;24.94;100.00
59757;BME280;45631;51.962;5.974;2023-06-22T08:37:36;101553.09;;;24.97;100.00
59757;BME280;45631;51.962;5.974;2023-06-22T08:40:09;101562.91;;;25.13;100.00
59757;BME280;45631;51.962;5.974;2023-06-22T08:42:40;101559.34;;;25.12;100.00
59757;BME280;45631;51.962;5.974;2023-06-22T08:45:10;101559.59;;;25.26;100.00
59757;BME280;45631;51.962;5.974;2023-06-22T08:47:38;101556.41;;;25.54;100.00
59757;BME280;45631;51.962;5.974;2023-06-22T08:50:08;101557.63;;;25.66;100.00
59757;BME280;45631;51.962;5.974;2023-06-22T08:52:37;101561.78;;;25.69;100.00
59757;BME280;45631;51.962;5.974;2023-06-22T08:55:10;101565.53;;;25.68;100.00
59757;BME280;45631;51.962;5.974;2023-06-22T08:57:38;101566.66;;;25.73;100.00
59757;BME280;45631;51.962;5.974;2023-06-22T09:00:08;101568.41;;;26.04;100.00
59757;BME280;45631;51.962;5.974;2023-06-22T09:02:47;101567.59;;;25.95;100.00
59757;BME280;45631;51.962;5.974;2023-06-22T09:05:18;101558.78;;;25.87;100.00
59757;BME280;45631;51.962;5.974;2023-06-22T09:07:48;101555.63;;;25.98;100.00
59757;BME280;45631;51.962;5.974;2023-06-22T09:10:18;101547.09;;;26.09;100.00
59757;BME280;45631;51.962;5.974;2023-06-22T09:12:46;101544.69;;;26.14;100.00
59757;BME280;45631;51.962;5.974;2023-06-22T09:15:14;101544.66;;;26.44;100.00
59757;BME280;45631;51.962;5.974;2023-06-22T09:17:53;101540.06;;;26.75;100.00
59757;BME280;45631;51.962;5.974;2023-06-22T09:20:22;101546.31;;;26.75;100.00
59757;BME280;45631;51.962;5.974;2023-06-22T09:22:50;101547.66;;;26.86;100.00
59757;BME280;45631;51.962;5.974;2023-06-22T09:25:20;101543.44;;;27.20;100.00
59757;BME280;45631;51.962;5.974;2023-06-22T09:27:48;101535.47;;;27.12;100.00
59757;BME280;45631;51.962;5.974;2023-06-22T09:30:16;101527.19;;;27.13;100.00
59757;BME280;45631;51.962;5.974;2023-06-22T09:32:44;101530.00;;;27.05;100.00
59757;BME280;45631;51.962;5.974;2023-06-22T09:35:13;101527.81;;;26.94;100.00
59757;BME280;45631;51.962;5.974;2023-06-22T09:37:43;101527.81;;;26.94;100.00
59757;BME280;45631;51.962;5.974;2023-06-22T09:40:12;101521.66;;;27.00;100.00
59757;BME280;45631;51.962;5.974;2023-06-22T09:42:45;101526.13;;;27.14;100.00
59757;BME280;45631;51.962;5.974;2023-06-22T09:45:13;101527.97;;;27.36;100.00
59757;BME280;45631;51.962;5.974;2023-06-22T09:47:41;101526.59;;;27.40;100.00
59757;BME280;45631;51.962;5.974;2023-06-22T09:50:10;101535.81;;;27.30;100.00
59757;BME280;45631;51.962;5.974;2023-06-22T09:52:38;101525.09;;;27.15;100.00
59757;BME280;45631;51.962;5.974;2023-06-22T09:55:09;101517.78;;;27.09;100.00
59757;BME280;45631;51.962;5.974;2023-06-22T09:57:39;101520.69;;;26.86;100.00
59757;BME280;45631;51.962;5.974;2023-06-22T10:00:10;101519.06;;;26.92;100.00
59757;BME280;45631;51.962;5.974;2023-06-22T10:02:41;101513.03;;;26.90;100.00
59757;BME280;45631;51.962;5.974;2023-06-22T10:05:10;101521.97;;;26.90;100.00
59757;BME280;45631;51.962;5.974;2023-06-22T10:07:38;101535.19;;;26.85;100.00
59757;BME280;45631;51.962;5.974;2023-06-22T10:10:10;101533.69;;;26.46;100.00
59757;BME280;45631;51.962;5.974;2023-06-22T10:12:41;101525.88;;;26.51;100.00
59757;BME280;45631;51.962;5.974;2023-06-22T10:15:11;101525.94;;;26.58;100.00
59757;BME280;45631;51.962;5.974;2023-06-22T10:17:40;101527.97;;;26.56;100.00
59757;BME280;45631;51.962;5.974;2023-06-22T10:20:09;101522.16;;;26.52;100.00
59757;BME280;45631;51.962;5.974;2023-06-22T10:22:40;101522.44;;;26.42;100.00
59757;BME280;45631;51.962;5.974;2023-06-22T10:25:09;101515.09;;;26.36;100.00
59757;BME280;45631;51.962;5.974;2023-06-22T10:27:38;101512.69;;;26.41;100.00
59757;BME280;45631;51.962;5.974;2023-06-22T10:30:09;101519.47;;;26.37;100.00
59757;BME280;45631;51.962;5.974;2023-06-22T10:32:41;101511.00;;;26.40;100.00
59757;BME280;45631;51.962;5.974;2023-06-22T10:35:10;101510.53;;;26.37;100.00
59757;BME280;45631;51.962;5.974;2023-06-22T10:37:41;101511.75;;;26.34;100.00
59757;BME280;45631;51.962;5.974;2023-06-22T10:40:11;101500.81;;;26.21;100.00
59757;BME280;45631;51.962;5.974;2023-06-22T10:42:40;101503.44;;;26.14;100.00
59757;BME280;45631;51.962;5.974;2023-06-22T10:45:08;101506.31;;;26.12;100.00
59757;BME280;45631;51.962;5.974;2023-06-22T10:47:37;101506.41;;;26.04;100.00
59757;BME280;45631;51.962;5.974;2023-06-22T10:50:07;101510.75;;;26.05;100.00
59757;BME280;45631;51.962;5.974;2023-06-22T10:52:35;101505.56;;;26.04;100.00
59757;BME280;45631;51.962;5.974;2023-06-22T10:55:08;101500.94;;;26.12;100.00
59757;BME280;45631;51.962;5.974;2023-06-22T10:57:37;101500.34;;;26.02;100.00
59757;BME280;45631;51.962;5.974;2023-06-22T11:00:07;101505.34;;;25.90;100.00
59757;BME280;45631;51.962;5.974;2023-06-22T11:02:38;101501.44;;;25.78;100.00
59757;BME280;45631;51.962;5.974;2023-06-22T11:05:10;101502.91;;;25.65;100.00
59757;BME280;45631;51.962;5.974;2023-06-22T11:07:41;101493.81;;;25.52;100.00
59757;BME280;45631;51.962;5.974;2023-06-22T11:10:15;101491.78;;;25.54;100.00
59757;BME280;45631;51.962;5.974;2023-06-22T11:12:44;101492.41;;;25.56;100.00
59757;BME280;45631;51.962;5.974;2023-06-22T11:15:12;101493.59;;;25.38;100.00
59757;BME280;45631;51.962;5.974;2023-06-22T11:17:40;101482.94;;;25.45;100.00
59757;BME280;45631;51.962;5.974;2023-06-22T11:20:11;101480.13;;;25.38;100.00
59757;BME280;45631;51.962;5.974;2023-06-22T11:22:40;101478.63;;;25.36;100.00
59757;BME280;45631;51.962;5.974;2023-06-22T11:25:08;101478.03;;;25.25;100.00
59757;BME280;45631;51.962;5.974;2023-06-22T11:27:38;101482.53;;;25.10;100.00
59757;BME280;45631;51.962;5.974;2023-06-22T11:30:09;101483.84;;;24.91;100.00
59757;BME280;45631;51.962;5.974;2023-06-22T11:32:37;101490.19;;;24.75;100.00
59757;BME280;45631;51.962;5.974;2023-06-22T11:35:06;101490.59;;;24.55;100.00
59757;BME280;45631;51.962;5.974;2023-06-22T11:37:36;101485.75;;;24.51;100.00
59757;BME280;45631;51.962;5.974;2023-06-22T11:40:05;101495.63;;;24.27;100.00
59757;BME280;45631;51.962;5.974;2023-06-22T11:42:35;101506.22;;;24.28;100.00
59757;BME280;45631;51.962;5.974;2023-06-22T11:45:07;101495.97;;;24.24;100.00
59757;BME280;45631;51.962;5.974;2023-06-22T11:47:35;101494.00;;;24.18;100.00
59757;BME280;45631;51.962;5.974;2023-06-22T11:50:05;101500.75;;;24.05;100.00
59757;BME280;45631;51.962;5.974;2023-06-22T11:52:34;101507.84;;;23.90;100.00
59757;BME280;45631;51.962;5.974;2023-06-22T11:55:06;101510.34;;;23.83;100.00
59757;BME280;45631;51.962;5.974;2023-06-22T11:57:35;101513.03;;;23.83;100.00
59757;BME280;45631;51.962;5.974;2023-06-22T12:00:08;101504.66;;;23.78;100.00
59757;BME280;45631;51.962;5.974;2023-06-22T12:02:44;101509.22;;;23.61;100.00
59757;BME280;45631;51.962;5.974;2023-06-22T12:05:13;101502.97;;;23.77;100.00
59757;BME280;45631;51.962;5.974;2023-06-22T12:10:13;101507.53;;;23.76;100.00
59757;BME280;45631;51.962;5.974;2023-06-22T12:12:42;101495.28;;;23.66;100.00
59757;BME280;45631;51.962;5.974;2023-06-22T12:15:10;101500.66;;;23.66;100.00
59757;BME280;45631;51.962;5.974;2023-06-22T12:17:39;101496.66;;;23.53;100.00
59757;BME280;45631;51.962;5.974;2023-06-22T12:20:08;101500.00;;;23.55;100.00
59757;BME280;45631;51.962;5.974;2023-06-22T12:22:37;101501.69;;;23.48;100.00
59757;BME280;45631;51.962;5.974;2023-06-22T12:25:06;101505.22;;;23.32;100.00
59757;BME280;45631;51.962;5.974;2023-06-22T12:27:36;101508.56;;;23.18;100.00
59757;BME280;45631;51.962;5.974;2023-06-22T12:30:05;101512.88;;;23.10;100.00
59757;BME280;45631;51.962;5.974;2023-06-22T12:32:33;101511.19;;;23.09;100.00
59757;BME280;45631;51.962;5.974;2023-06-22T12:35:02;101502.66;;;23.06;100.00
59757;BME280;45631;51.962;5.974;2023-06-22T12:37:31;101502.47;;;22.91;100.00
59757;BME280;45631;51.962;5.974;2023-06-22T12:40:00;101494.78;;;22.96;100.00
59757;BME280;45631;51.962;5.974;2023-06-22T12:42:30;101489.41;;;22.88;100.00
59757;BME280;45631;51.962;5.974;2023-06-22T12:44:59;101483.34;;;22.69;100.00
59757;BME280;45631;51.962;5.974;2023-06-22T12:47:28;101485.00;;;22.54;100.00
59757;BME280;45631;51.962;5.974;2023-06-22T12:49:56;101470.53;;;22.47;100.00
59757;BME280;45631;51.962;5.974;2023-06-22T12:52:24;101462.44;;;22.30;100.00
59757;BME280;45631;51.962;5.974;2023-06-22T12:54:52;101454.38;;;22.22;100.00
59757;BME280;45631;51.962;5.974;2023-06-22T12:57:22;101438.41;;;22.04;100.00
59757;BME280;45631;51.962;5.974;2023-06-22T12:59:50;101432.28;;;21.85;100.00